sensor_id;sensor_type;location;lat;lon;timestamp;P1;durP1;ratioP1;P2;durP2;ratioP2
26082;SDS011;13848;49.018;12.078;2023-12-04T00:02:16;30.27;;;14.60;;
26082;SDS011;13848;49.018;12.078;2023-12-04T00:04:42;29.05;;;13.60;;
26082;SDS011;13848;49.018;12.078;2023-12-04T00:07:08;29.17;;;13.07;;
26082;SDS011;13848;49.018;12.078;2023-12-04T00:09:34;27.58;;;12.80;;
26082;SDS011;13848;49.018;12.078;2023-12-04T00:12:00;28.08;;;12.88;;
26082;SDS011;13848;49.018;12.078;2023-12-04T00:14:26;28.30;;;13.18;;
26082;SDS011;13848;49.018;12.078;2023-12-04T00:16:53;30.13;;;14.38;;
26082;SDS011;13848;49.018;12.078;2023-12-04T00:19:19;33.15;;;13.73;;
26082;SDS011;13848;49.018;12.078;2023-12-04T00:21:45;28.85;;;14.02;;
26082;SDS011;13848;49.018;12.078;2023-12-04T00:24:11;35.58;;;13.43;;
26082;SDS011;13848;49.018;12.078;2023-12-04T00:26:37;25.42;;;12.45;;
26082;SDS011;13848;49.018;12.078;2023-12-04T00:29:03;35.88;;;14.20;;
26082;SDS011;13848;49.018;12.078;2023-12-04T00:31:29;24.48;;;12.70;;
26082;SDS011;13848;49.018;12.078;2023-12-04T00:33:56;28.02;;;13.18;;
26082;SDS011;13848;49.018;12.078;2023-12-04T00:36:22;29.58;;;12.70;;
26082;SDS011;13848;49.018;12.078;2023-12-04T00:38:48;28.63;;;12.73;;
26082;SDS011;13848;49.018;12.078;2023-12-04T00:41:14;31.98;;;13.18;;
26082;SDS011;13848;49.018;12.078;2023-12-04T00:43:40;43.78;;;12.60;;
26082;SDS011;13848;49.018;12.078;2023-12-04T00:46:06;33.13;;;12.23;;
26082;SDS011;13848;49.018;12.078;2023-12-04T00:48:32;23.95;;;11.93;;
26082;SDS011;13848;49.018;12.078;2023-12-04T00:50:59;29.40;;;12.70;;
26082;SDS011;13848;49.018;12.078;2023-12-04T00:53:25;27.67;;;13.10;;
26082;SDS011;13848;49.018;12.078;2023-12-04T00:55:51;29.95;;;13.05;;
26082;SDS011;13848;49.018;12.078;2023-12-04T00:58:17;32.53;;;13.32;;
26082;SDS011;13848;49.018;12.078;2023-12-04T01:00:43;33.55;;;12.48;;
26082;SDS011;13848;49.018;12.078;2023-12-04T01:03:09;31.13;;;12.93;;
26082;SDS011;13848;49.018;12.078;2023-12-04T01:05:35;27.00;;;12.07;;
26082;SDS011;13848;49.018;12.078;2023-12-04T01:08:02;29.65;;;13.52;;
26082;SDS011;13848;49.018;12.078;2023-12-04T01:10:28;28.00;;;13.48;;
26082;SDS011;13848;49.018;12.078;2023-12-04T01:12:54;26.90;;;12.45;;
26082;SDS011;13848;49.018;12.078;2023-12-04T01:15:20;27.60;;;12.52;;
26082;SDS011;13848;49.018;12.078;2023-12-04T01:17:46;27.35;;;12.90;;
26082;SDS011;13848;49.018;12.078;2023-12-04T01:20:12;29.42;;;13.15;;
26082;SDS011;13848;49.018;12.078;2023-12-04T01:22:38;27.55;;;13.20;;
26082;SDS011;13848;49.018;12.078;2023-12-04T01:25:06;28.67;;;12.95;;
26082;SDS011;13848;49.018;12.078;2023-12-04T01:27:33;24.45;;;12.30;;
26082;SDS011;13848;49.018;12.078;2023-12-04T01:29:59;27.30;;;12.88;;
26082;SDS011;13848;49.018;12.078;2023-12-04T01:32:25;30.35;;;12.48;;
26082;SDS011;13848;49.018;12.078;2023-12-04T01:34:51;26.17;;;11.95;;
26082;SDS011;13848;49.018;12.078;2023-12-04T01:37:17;27.88;;;11.52;;
26082;SDS011;13848;49.018;12.078;2023-12-04T01:39:43;23.27;;;11.95;;
26082;SDS011;13848;49.018;12.078;2023-12-04T01:42:10;24.83;;;11.60;;
26082;SDS011;13848;49.018;12.078;2023-12-04T01:44:36;28.23;;;12.63;;
26082;SDS011;13848;49.018;12.078;2023-12-04T01:47:02;22.80;;;11.20;;
26082;SDS011;13848;49.018;12.078;2023-12-04T01:49:28;24.05;;;11.50;;
26082;SDS011;13848;49.018;12.078;2023-12-04T01:51:56;25.08;;;11.90;;
26082;SDS011;13848;49.018;12.078;2023-12-04T01:54:22;26.92;;;12.00;;
26082;SDS011;13848;49.018;12.078;2023-12-04T01:56:48;24.45;;;10.70;;
26082;SDS011;13848;49.018;12.078;2023-12-04T01:59:16;28.02;;;11.95;;
26082;SDS011;13848;49.018;12.078;2023-12-04T02:01:42;27.92;;;12.45;;
26082;SDS011;13848;49.018;12.078;2023-12-04T02:04:08;25.45;;;11.10;;
26082;SDS011;13848;49.018;12.078;2023-12-04T02:06:34;25.02;;;12.07;;
26082;SDS011;13848;49.018;12.078;2023-12-04T02:09:01;28.70;;;12.70;;
26082;SDS011;13848;49.018;12.078;2023-12-04T02:11:27;25.27;;;11.98;;
26082;SDS011;13848;49.018;12.078;2023-12-04T02:13:53;26.65;;;12.48;;
26082;SDS011;13848;49.018;12.078;2023-12-04T02:16:20;24.80;;;11.07;;
26082;SDS011;13848;49.018;12.078;2023-12-04T02:18:50;27.15;;;12.00;;
26082;SDS011;13848;49.018;12.078;2023-12-04T02:21:16;30.20;;;12.85;;
26082;SDS011;13848;49.018;12.078;2023-12-04T02:23:42;25.65;;;11.50;;
26082;SDS011;13848;49.018;12.078;2023-12-04T02:26:10;26.65;;;11.20;;
26082;SDS011;13848;49.018;12.078;2023-12-04T02:28:39;25.90;;;10.73;;
26082;SDS011;13848;49.018;12.078;2023-12-04T02:31:07;25.23;;;11.27;;
26082;SDS011;13848;49.018;12.078;2023-12-04T02:33:34;32.28;;;11.85;;
26082;SDS011;13848;49.018;12.078;2023-12-04T02:36:02;24.02;;;11.18;;
26082;SDS011;13848;49.018;12.078;2023-12-04T02:38:30;25.45;;;10.75;;
26082;SDS011;13848;49.018;12.078;2023-12-04T02:40:56;27.08;;;11.88;;
26082;SDS011;13848;49.018;12.078;2023-12-04T02:43:24;23.80;;;11.32;;
26082;SDS011;13848;49.018;12.078;2023-12-04T02:45:50;23.55;;;11.93;;
26082;SDS011;13848;49.018;12.078;2023-12-04T02:48:16;25.75;;;10.90;;
26082;SDS011;13848;49.018;12.078;2023-12-04T02:50:42;28.25;;;12.63;;
26082;SDS011;13848;49.018;12.078;2023-12-04T02:53:07;29.15;;;12.27;;
26082;SDS011;13848;49.018;12.078;2023-12-04T02:55:33;27.33;;;12.10;;
26082;SDS011;13848;49.018;12.078;2023-12-04T02:57:59;25.42;;;12.23;;
26082;SDS011;13848;49.018;12.078;2023-12-04T03:00:27;21.70;;;10.70;;
26082;SDS011;13848;49.018;12.078;2023-12-04T03:02:52;27.25;;;11.50;;
26082;SDS011;13848;49.018;12.078;2023-12-04T03:05:19;23.45;;;11.23;;
26082;SDS011;13848;49.018;12.078;2023-12-04T03:07:45;22.50;;;10.75;;
26082;SDS011;13848;49.018;12.078;2023-12-04T03:10:11;27.38;;;11.60;;
26082;SDS011;13848;49.018;12.078;2023-12-04T03:12:37;33.00;;;12.00;;
26082;SDS011;13848;49.018;12.078;2023-12-04T03:15:03;26.98;;;12.15;;
26082;SDS011;13848;49.018;12.078;2023-12-04T03:17:31;25.48;;;11.18;;
26082;SDS011;13848;49.018;12.078;2023-12-04T03:19:57;27.27;;;12.00;;
26082;SDS011;13848;49.018;12.078;2023-12-04T03:22:23;24.02;;;12.02;;
26082;SDS011;13848;49.018;12.078;2023-12-04T03:24:48;27.48;;;12.55;;
26082;SDS011;13848;49.018;12.078;2023-12-04T03:27:14;26.92;;;12.27;;
26082;SDS011;13848;49.018;12.078;2023-12-04T03:29:40;30.10;;;12.35;;
26082;SDS011;13848;49.018;12.078;2023-12-04T03:32:06;27.65;;;11.75;;
26082;SDS011;13848;49.018;12.078;2023-12-04T03:34:34;23.85;;;11.45;;
26082;SDS011;13848;49.018;12.078;2023-12-04T03:36:59;23.42;;;11.77;;
26082;SDS011;13848;49.018;12.078;2023-12-04T03:39:25;29.73;;;12.40;;
26082;SDS011;13848;49.018;12.078;2023-12-04T03:41:51;26.48;;;11.63;;
26082;SDS011;13848;49.018;12.078;2023-12-04T03:44:17;25.58;;;11.35;;
26082;SDS011;13848;49.018;12.078;2023-12-04T03:46:43;26.58;;;11.98;;
26082;SDS011;13848;49.018;12.078;2023-12-04T03:49:09;25.23;;;11.65;;
26082;SDS011;13848;49.018;12.078;2023-12-04T03:51:36;29.88;;;11.63;;
26082;SDS011;13848;49.018;12.078;2023-12-04T03:54:02;25.48;;;12.05;;
26082;SDS011;13848;49.018;12.078;2023-12-04T03:56:28;28.35;;;12.48;;
26082;SDS011;13848;49.018;12.078;2023-12-04T03:58:54;25.50;;;11.32;;
26082;SDS011;13848;49.018;12.078;2023-12-04T04:01:20;23.75;;;11.32;;
26082;SDS011;13848;49.018;12.078;2023-12-04T04:03:46;26.05;;;11.77;;
26082;SDS011;13848;49.018;12.078;2023-12-04T04:06:12;26.20;;;12.15;;
26082;SDS011;13848;49.018;12.078;2023-12-04T04:08:39;25.95;;;11.98;;
26082;SDS011;13848;49.018;12.078;2023-12-04T04:11:05;25.10;;;12.38;;
26082;SDS011;13848;49.018;12.078;2023-12-04T04:13:32;24.60;;;12.00;;
26082;SDS011;13848;49.018;12.078;2023-12-04T04:15:58;23.83;;;11.50;;
26082;SDS011;13848;49.018;12.078;2023-12-04T04:18:24;29.38;;;12.00;;
26082;SDS011;13848;49.018;12.078;2023-12-04T04:20:49;27.02;;;11.48;;
26082;SDS011;13848;49.018;12.078;2023-12-04T04:23:15;26.58;;;12.05;;
26082;SDS011;13848;49.018;12.078;2023-12-04T04:25:43;23.88;;;11.48;;
26082;SDS011;13848;49.018;12.078;2023-12-04T04:28:09;24.02;;;10.75;;
26082;SDS011;13848;49.018;12.078;2023-12-04T04:30:36;20.40;;;10.60;;
26082;SDS011;13848;49.018;12.078;2023-12-04T04:33:02;23.75;;;11.38;;
26082;SDS011;13848;49.018;12.078;2023-12-04T04:35:28;22.98;;;10.25;;
26082;SDS011;13848;49.018;12.078;2023-12-04T04:37:54;25.00;;;11.02;;
26082;SDS011;13848;49.018;12.078;2023-12-04T04:40:20;23.25;;;10.88;;
26082;SDS011;13848;49.018;12.078;2023-12-04T04:42:47;22.50;;;10.30;;
26082;SDS011;13848;49.018;12.078;2023-12-04T04:45:13;20.58;;;9.95;;
26082;SDS011;13848;49.018;12.078;2023-12-04T04:47:39;19.17;;;9.35;;
26082;SDS011;13848;49.018;12.078;2023-12-04T04:50:05;24.27;;;10.40;;
26082;SDS011;13848;49.018;12.078;2023-12-04T04:52:32;22.42;;;11.10;;
26082;SDS011;13848;49.018;12.078;2023-12-04T04:54:58;25.25;;;11.75;;
26082;SDS011;13848;49.018;12.078;2023-12-04T04:57:24;23.83;;;11.38;;
26082;SDS011;13848;49.018;12.078;2023-12-04T04:59:51;19.30;;;10.35;;
26082;SDS011;13848;49.018;12.078;2023-12-04T05:02:17;25.98;;;10.95;;
26082;SDS011;13848;49.018;12.078;2023-12-04T05:04:43;24.45;;;11.25;;
26082;SDS011;13848;49.018;12.078;2023-12-04T05:07:09;25.40;;;10.57;;
26082;SDS011;13848;49.018;12.078;2023-12-04T05:09:35;23.40;;;10.77;;
26082;SDS011;13848;49.018;12.078;2023-12-04T05:12:01;22.27;;;11.05;;
26082;SDS011;13848;49.018;12.078;2023-12-04T05:14:27;20.02;;;10.38;;
26082;SDS011;13848;49.018;12.078;2023-12-04T05:16:54;20.23;;;10.07;;
26082;SDS011;13848;49.018;12.078;2023-12-04T05:19:20;21.70;;;11.13;;
26082;SDS011;13848;49.018;12.078;2023-12-04T05:21:46;20.08;;;10.18;;
26082;SDS011;13848;49.018;12.078;2023-12-04T05:24:12;21.77;;;11.45;;
26082;SDS011;13848;49.018;12.078;2023-12-04T05:26:38;24.23;;;10.40;;
26082;SDS011;13848;49.018;12.078;2023-12-04T05:29:04;24.00;;;11.48;;
26082;SDS011;13848;49.018;12.078;2023-12-04T05:31:30;25.35;;;11.13;;
26082;SDS011;13848;49.018;12.078;2023-12-04T05:33:57;23.80;;;10.85;;
26082;SDS011;13848;49.018;12.078;2023-12-04T05:36:23;21.10;;;10.50;;
26082;SDS011;13848;49.018;12.078;2023-12-04T05:38:49;22.08;;;11.02;;
26082;SDS011;13848;49.018;12.078;2023-12-04T05:41:15;23.40;;;10.63;;
26082;SDS011;13848;49.018;12.078;2023-12-04T05:43:41;31.10;;;10.90;;
26082;SDS011;13848;49.018;12.078;2023-12-04T05:46:07;21.77;;;10.70;;
26082;SDS011;13848;49.018;12.078;2023-12-04T05:48:33;23.55;;;10.82;;
26082;SDS011;13848;49.018;12.078;2023-12-04T05:51:00;22.48;;;10.90;;
26082;SDS011;13848;49.018;12.078;2023-12-04T05:53:26;22.15;;;10.27;;
26082;SDS011;13848;49.018;12.078;2023-12-04T05:55:52;21.85;;;10.60;;
26082;SDS011;13848;49.018;12.078;2023-12-04T05:58:18;20.13;;;10.50;;
26082;SDS011;13848;49.018;12.078;2023-12-04T06:00:43;21.98;;;10.02;;
26082;SDS011;13848;49.018;12.078;2023-12-04T06:03:09;18.02;;;9.55;;
26082;SDS011;13848;49.018;12.078;2023-12-04T06:05:35;22.05;;;10.38;;
26082;SDS011;13848;49.018;12.078;2023-12-04T06:08:03;22.67;;;10.88;;
26082;SDS011;13848;49.018;12.078;2023-12-04T06:10:29;22.65;;;10.02;;
26082;SDS011;13848;49.018;12.078;2023-12-04T06:12:55;22.55;;;9.68;;
26082;SDS011;13848;49.018;12.078;2023-12-04T06:15:21;24.10;;;10.73;;
26082;SDS011;13848;49.018;12.078;2023-12-04T06:17:47;19.98;;;9.85;;
26082;SDS011;13848;49.018;12.078;2023-12-04T06:20:13;26.15;;;11.20;;
26082;SDS011;13848;49.018;12.078;2023-12-04T06:22:39;21.45;;;10.60;;
26082;SDS011;13848;49.018;12.078;2023-12-04T06:25:08;26.05;;;10.55;;
26082;SDS011;13848;49.018;12.078;2023-12-04T06:27:35;27.38;;;11.60;;
26082;SDS011;13848;49.018;12.078;2023-12-04T06:30:01;23.95;;;11.40;;
26082;SDS011;13848;49.018;12.078;2023-12-04T06:32:28;22.38;;;11.15;;
26082;SDS011;13848;49.018;12.078;2023-12-04T06:34:54;23.05;;;10.43;;
26082;SDS011;13848;49.018;12.078;2023-12-04T06:37:21;19.23;;;10.73;;
26082;SDS011;13848;49.018;12.078;2023-12-04T06:39:48;22.75;;;10.82;;
26082;SDS011;13848;49.018;12.078;2023-12-04T06:42:17;25.98;;;12.02;;
26082;SDS011;13848;49.018;12.078;2023-12-04T06:44:44;23.13;;;10.95;;
26082;SDS011;13848;49.018;12.078;2023-12-04T06:47:10;22.25;;;10.90;;
26082;SDS011;13848;49.018;12.078;2023-12-04T06:49:38;21.90;;;10.88;;
26082;SDS011;13848;49.018;12.078;2023-12-04T06:52:04;22.60;;;11.63;;
26082;SDS011;13848;49.018;12.078;2023-12-04T06:54:30;25.17;;;11.27;;
26082;SDS011;13848;49.018;12.078;2023-12-04T06:56:56;21.63;;;10.90;;
26082;SDS011;13848;49.018;12.078;2023-12-04T06:59:24;24.48;;;11.70;;
26082;SDS011;13848;49.018;12.078;2023-12-04T07:01:50;21.95;;;10.63;;
26082;SDS011;13848;49.018;12.078;2023-12-04T07:04:16;20.08;;;10.88;;
26082;SDS011;13848;49.018;12.078;2023-12-04T07:06:42;22.48;;;10.82;;
26082;SDS011;13848;49.018;12.078;2023-12-04T07:09:08;23.50;;;11.15;;
26082;SDS011;13848;49.018;12.078;2023-12-04T07:11:34;25.13;;;11.15;;
26082;SDS011;13848;49.018;12.078;2023-12-04T07:14:00;24.25;;;11.63;;
26082;SDS011;13848;49.018;12.078;2023-12-04T07:16:27;25.92;;;12.70;;
26082;SDS011;13848;49.018;12.078;2023-12-04T07:18:53;30.77;;;13.30;;
26082;SDS011;13848;49.018;12.078;2023-12-04T07:21:19;28.52;;;12.88;;
26082;SDS011;13848;49.018;12.078;2023-12-04T07:23:45;28.42;;;12.50;;
26082;SDS011;13848;49.018;12.078;2023-12-04T07:26:11;28.42;;;12.50;;
26082;SDS011;13848;49.018;12.078;2023-12-04T07:28:37;23.63;;;11.43;;
26082;SDS011;13848;49.018;12.078;2023-12-04T07:31:03;26.48;;;11.88;;
26082;SDS011;13848;49.018;12.078;2023-12-04T07:33:31;26.58;;;12.48;;
26082;SDS011;13848;49.018;12.078;2023-12-04T07:35:56;27.20;;;11.95;;
26082;SDS011;13848;49.018;12.078;2023-12-04T07:38:22;24.00;;;12.73;;
26082;SDS011;13848;49.018;12.078;2023-12-04T07:40:48;36.58;;;14.52;;
26082;SDS011;13848;49.018;12.078;2023-12-04T07:43:14;29.70;;;13.80;;
26082;SDS011;13848;49.018;12.078;2023-12-04T07:45:40;27.98;;;13.32;;
26082;SDS011;13848;49.018;12.078;2023-12-04T07:48:07;28.17;;;12.48;;
26082;SDS011;13848;49.018;12.078;2023-12-04T07:50:34;26.70;;;12.35;;
26082;SDS011;13848;49.018;12.078;2023-12-04T07:53:01;25.40;;;12.70;;
26082;SDS011;13848;49.018;12.078;2023-12-04T07:55:27;25.08;;;12.45;;
26082;SDS011;13848;49.018;12.078;2023-12-04T07:57:53;23.88;;;12.60;;
26082;SDS011;13848;49.018;12.078;2023-12-04T08:00:19;29.08;;;13.40;;
26082;SDS011;13848;49.018;12.078;2023-12-04T08:02:46;27.55;;;13.77;;
26082;SDS011;13848;49.018;12.078;2023-12-04T08:05:12;31.27;;;13.38;;
26082;SDS011;13848;49.018;12.078;2023-12-04T08:07:39;26.75;;;14.07;;
26082;SDS011;13848;49.018;12.078;2023-12-04T08:10:05;26.92;;;12.38;;
26082;SDS011;13848;49.018;12.078;2023-12-04T08:12:32;27.38;;;12.00;;
26082;SDS011;13848;49.018;12.078;2023-12-04T08:14:58;30.05;;;12.90;;
26082;SDS011;13848;49.018;12.078;2023-12-04T08:17:25;29.67;;;13.70;;
26082;SDS011;13848;49.018;12.078;2023-12-04T08:19:51;27.35;;;14.02;;
26082;SDS011;13848;49.018;12.078;2023-12-04T08:22:17;28.92;;;13.05;;
26082;SDS011;13848;49.018;12.078;2023-12-04T08:24:45;25.80;;;12.80;;
26082;SDS011;13848;49.018;12.078;2023-12-04T08:27:11;25.88;;;13.77;;
26082;SDS011;13848;49.018;12.078;2023-12-04T08:29:39;30.40;;;13.75;;
26082;SDS011;13848;49.018;12.078;2023-12-04T08:32:05;24.58;;;12.57;;
26082;SDS011;13848;49.018;12.078;2023-12-04T08:34:32;26.80;;;12.85;;
26082;SDS011;13848;49.018;12.078;2023-12-04T08:36:58;22.63;;;11.73;;
26082;SDS011;13848;49.018;12.078;2023-12-04T08:39:23;27.48;;;13.02;;
26082;SDS011;13848;49.018;12.078;2023-12-04T08:41:51;23.42;;;12.15;;
26082;SDS011;13848;49.018;12.078;2023-12-04T08:44:17;24.42;;;12.57;;
26082;SDS011;13848;49.018;12.078;2023-12-04T08:46:43;26.33;;;12.55;;
26082;SDS011;13848;49.018;12.078;2023-12-04T08:49:10;24.77;;;12.48;;
26082;SDS011;13848;49.018;12.078;2023-12-04T08:51:36;22.25;;;11.98;;
26082;SDS011;13848;49.018;12.078;2023-12-04T08:54:02;22.60;;;12.63;;
26082;SDS011;13848;49.018;12.078;2023-12-04T08:56:28;23.33;;;12.27;;
26082;SDS011;13848;49.018;12.078;2023-12-04T08:58:55;26.08;;;13.00;;
26082;SDS011;13848;49.018;12.078;2023-12-04T09:01:21;30.13;;;12.93;;
26082;SDS011;13848;49.018;12.078;2023-12-04T09:03:47;26.35;;;13.07;;
26082;SDS011;13848;49.018;12.078;2023-12-04T09:06:13;23.35;;;12.40;;
26082;SDS011;13848;49.018;12.078;2023-12-04T09:08:39;23.23;;;12.45;;
26082;SDS011;13848;49.018;12.078;2023-12-04T09:11:05;24.52;;;13.13;;
26082;SDS011;13848;49.018;12.078;2023-12-04T09:13:32;22.27;;;12.15;;
26082;SDS011;13848;49.018;12.078;2023-12-04T09:15:59;26.75;;;13.57;;
26082;SDS011;13848;49.018;12.078;2023-12-04T09:18:25;25.33;;;13.73;;
26082;SDS011;13848;49.018;12.078;2023-12-04T09:20:51;26.70;;;13.75;;
26082;SDS011;13848;49.018;12.078;2023-12-04T09:23:17;26.48;;;13.70;;
26082;SDS011;13848;49.018;12.078;2023-12-04T09:25:43;23.77;;;12.93;;
26082;SDS011;13848;49.018;12.078;2023-12-04T09:28:09;29.45;;;13.15;;
26082;SDS011;13848;49.018;12.078;2023-12-04T09:30:35;23.08;;;12.43;;
26082;SDS011;13848;49.018;12.078;2023-12-04T09:33:03;22.95;;;12.43;;
26082;SDS011;13848;49.018;12.078;2023-12-04T09:35:29;44.58;;;20.85;;
26082;SDS011;13848;49.018;12.078;2023-12-04T09:37:55;27.25;;;14.15;;
26082;SDS011;13848;49.018;12.078;2023-12-04T09:40:21;23.95;;;12.88;;
26082;SDS011;13848;49.018;12.078;2023-12-04T09:42:47;26.80;;;12.90;;
26082;SDS011;13848;49.018;12.078;2023-12-04T09:45:13;23.17;;;12.60;;
26082;SDS011;13848;49.018;12.078;2023-12-04T09:47:41;24.92;;;12.00;;
26082;SDS011;13848;49.018;12.078;2023-12-04T09:50:09;21.77;;;12.23;;
26082;SDS011;13848;49.018;12.078;2023-12-04T09:52:35;23.55;;;12.57;;
26082;SDS011;13848;49.018;12.078;2023-12-04T09:55:01;23.45;;;12.35;;
26082;SDS011;13848;49.018;12.078;2023-12-04T09:57:28;20.17;;;11.73;;
26082;SDS011;13848;49.018;12.078;2023-12-04T09:59:53;22.42;;;12.23;;
26082;SDS011;13848;49.018;12.078;2023-12-04T10:02:20;24.08;;;12.50;;
26082;SDS011;13848;49.018;12.078;2023-12-04T10:04:46;22.73;;;12.10;;
26082;SDS011;13848;49.018;12.078;2023-12-04T10:07:13;25.35;;;13.13;;
26082;SDS011;13848;49.018;12.078;2023-12-04T10:09:39;25.83;;;12.75;;
26082;SDS011;13848;49.018;12.078;2023-12-04T10:12:06;21.98;;;11.38;;
26082;SDS011;13848;49.018;12.078;2023-12-04T10:14:32;21.05;;;12.00;;
26082;SDS011;13848;49.018;12.078;2023-12-04T10:16:58;21.42;;;11.50;;
26082;SDS011;13848;49.018;12.078;2023-12-04T10:19:25;23.02;;;12.05;;
26082;SDS011;13848;49.018;12.078;2023-12-04T10:21:52;22.77;;;12.32;;
26082;SDS011;13848;49.018;12.078;2023-12-04T10:24:28;20.70;;;11.48;;
26082;SDS011;13848;49.018;12.078;2023-12-04T10:26:56;22.77;;;11.90;;
26082;SDS011;13848;49.018;12.078;2023-12-04T10:29:22;22.55;;;12.05;;
26082;SDS011;13848;49.018;12.078;2023-12-04T10:31:49;18.95;;;11.27;;
26082;SDS011;13848;49.018;12.078;2023-12-04T10:34:16;22.85;;;11.73;;
26082;SDS011;13848;49.018;12.078;2023-12-04T10:36:42;20.70;;;11.02;;
26082;SDS011;13848;49.018;12.078;2023-12-04T10:39:08;19.35;;;10.50;;
26082;SDS011;13848;49.018;12.078;2023-12-04T10:41:36;20.90;;;10.15;;
26082;SDS011;13848;49.018;12.078;2023-12-04T10:44:02;18.08;;;9.70;;
26082;SDS011;13848;49.018;12.078;2023-12-04T10:46:28;20.33;;;10.57;;
26082;SDS011;13848;49.018;12.078;2023-12-04T10:48:54;19.75;;;10.25;;
26082;SDS011;13848;49.018;12.078;2023-12-04T10:51:21;22.00;;;10.95;;
26082;SDS011;13848;49.018;12.078;2023-12-04T10:53:49;20.27;;;10.98;;
26082;SDS011;13848;49.018;12.078;2023-12-04T10:56:19;19.38;;;11.65;;
26082;SDS011;13848;49.018;12.078;2023-12-04T10:58:54;21.63;;;11.70;;
26082;SDS011;13848;49.018;12.078;2023-12-04T11:01:23;20.95;;;11.57;;
26082;SDS011;13848;49.018;12.078;2023-12-04T11:03:51;27.30;;;12.05;;
26082;SDS011;13848;49.018;12.078;2023-12-04T11:06:20;38.10;;;17.55;;
26082;SDS011;13848;49.018;12.078;2023-12-04T11:08:49;22.83;;;12.10;;
26082;SDS011;13848;49.018;12.078;2023-12-04T11:11:18;18.13;;;10.43;;
26082;SDS011;13848;49.018;12.078;2023-12-04T11:13:49;19.48;;;11.57;;
26082;SDS011;13848;49.018;12.078;2023-12-04T11:16:33;21.08;;;11.95;;
26082;SDS011;13848;49.018;12.078;2023-12-04T11:21:31;17.50;;;9.70;;
26082;SDS011;13848;49.018;12.078;2023-12-04T11:23:59;17.67;;;9.98;;
26082;SDS011;13848;49.018;12.078;2023-12-04T11:26:26;19.63;;;9.80;;
26082;SDS011;13848;49.018;12.078;2023-12-04T11:28:52;18.58;;;9.40;;
26082;SDS011;13848;49.018;12.078;2023-12-04T11:31:21;20.05;;;10.63;;
26082;SDS011;13848;49.018;12.078;2023-12-04T11:33:47;27.10;;;10.35;;
26082;SDS011;13848;49.018;12.078;2023-12-04T11:36:13;29.55;;;13.75;;
26082;SDS011;13848;49.018;12.078;2023-12-04T11:38:43;28.58;;;13.98;;
26082;SDS011;13848;49.018;12.078;2023-12-04T11:41:16;29.65;;;14.93;;
26082;SDS011;13848;49.018;12.078;2023-12-04T11:43:45;24.20;;;12.02;;
26082;SDS011;13848;49.018;12.078;2023-12-04T11:46:11;21.58;;;11.13;;
26082;SDS011;13848;49.018;12.078;2023-12-04T11:48:39;24.70;;;12.40;;
26082;SDS011;13848;49.018;12.078;2023-12-04T11:51:05;23.85;;;11.80;;
26082;SDS011;13848;49.018;12.078;2023-12-04T11:53:31;25.95;;;12.13;;
26082;SDS011;13848;49.018;12.078;2023-12-04T11:55:57;23.08;;;11.45;;
26082;SDS011;13848;49.018;12.078;2023-12-04T11:58:23;23.50;;;10.52;;
26082;SDS011;13848;49.018;12.078;2023-12-04T12:00:49;19.05;;;10.57;;
26082;SDS011;13848;49.018;12.078;2023-12-04T12:03:15;25.35;;;11.55;;
26082;SDS011;13848;49.018;12.078;2023-12-04T12:05:43;20.48;;;10.45;;
26082;SDS011;13848;49.018;12.078;2023-12-04T12:08:09;17.08;;;9.75;;
26082;SDS011;13848;49.018;12.078;2023-12-04T12:10:35;17.40;;;9.55;;
26082;SDS011;13848;49.018;12.078;2023-12-04T12:13:02;49.50;;;22.67;;
26082;SDS011;13848;49.018;12.078;2023-12-04T12:15:28;34.25;;;16.88;;
26082;SDS011;13848;49.018;12.078;2023-12-04T12:17:54;20.38;;;10.55;;
26082;SDS011;13848;49.018;12.078;2023-12-04T12:20:20;19.63;;;9.98;;
26082;SDS011;13848;49.018;12.078;2023-12-04T12:22:47;17.27;;;9.52;;
26082;SDS011;13848;49.018;12.078;2023-12-04T12:25:14;17.00;;;9.90;;
26082;SDS011;13848;49.018;12.078;2023-12-04T12:27:40;18.85;;;9.85;;
26082;SDS011;13848;49.018;12.078;2023-12-04T12:30:06;16.45;;;9.65;;
26082;SDS011;13848;49.018;12.078;2023-12-04T12:32:33;20.10;;;10.15;;
26082;SDS011;13848;49.018;12.078;2023-12-04T12:34:59;19.63;;;9.70;;
26082;SDS011;13848;49.018;12.078;2023-12-04T12:37:25;24.80;;;10.25;;
26082;SDS011;13848;49.018;12.078;2023-12-04T12:39:53;18.88;;;9.95;;
26082;SDS011;13848;49.018;12.078;2023-12-04T12:42:22;20.42;;;9.48;;
26082;SDS011;13848;49.018;12.078;2023-12-04T12:44:49;17.35;;;9.10;;
26082;SDS011;13848;49.018;12.078;2023-12-04T12:47:15;17.60;;;9.32;;
26082;SDS011;13848;49.018;12.078;2023-12-04T12:49:41;19.70;;;9.20;;
26082;SDS011;13848;49.018;12.078;2023-12-04T12:52:07;17.33;;;8.43;;
26082;SDS011;13848;49.018;12.078;2023-12-04T12:54:33;12.20;;;6.22;;
26082;SDS011;13848;49.018;12.078;2023-12-04T12:57:00;14.30;;;7.20;;
26082;SDS011;13848;49.018;12.078;2023-12-04T12:59:27;13.70;;;6.90;;
26082;SDS011;13848;49.018;12.078;2023-12-04T13:01:53;13.15;;;6.97;;
26082;SDS011;13848;49.018;12.078;2023-12-04T13:04:19;13.68;;;7.13;;
26082;SDS011;13848;49.018;12.078;2023-12-04T13:06:45;12.57;;;6.70;;
26082;SDS011;13848;49.018;12.078;2023-12-04T13:09:11;20.10;;;10.15;;
26082;SDS011;13848;49.018;12.078;2023-12-04T13:11:37;17.42;;;8.02;;
26082;SDS011;13848;49.018;12.078;2023-12-04T13:14:04;12.05;;;6.72;;
26082;SDS011;13848;49.018;12.078;2023-12-04T13:16:30;14.68;;;6.88;;
26082;SDS011;13848;49.018;12.078;2023-12-04T13:18:56;12.52;;;6.95;;
26082;SDS011;13848;49.018;12.078;2023-12-04T13:21:22;12.23;;;7.00;;
26082;SDS011;13848;49.018;12.078;2023-12-04T13:23:48;11.32;;;5.95;;
26082;SDS011;13848;49.018;12.078;2023-12-04T13:26:14;13.20;;;6.78;;
26082;SDS011;13848;49.018;12.078;2023-12-04T13:28:40;13.70;;;6.88;;
26082;SDS011;13848;49.018;12.078;2023-12-04T13:31:07;11.40;;;6.45;;
26082;SDS011;13848;49.018;12.078;2023-12-04T13:33:33;12.48;;;6.07;;
26082;SDS011;13848;49.018;12.078;2023-12-04T13:35:59;13.38;;;6.47;;
26082;SDS011;13848;49.018;12.078;2023-12-04T13:38:25;12.50;;;6.25;;
26082;SDS011;13848;49.018;12.078;2023-12-04T13:40:51;10.40;;;5.45;;
26082;SDS011;13848;49.018;12.078;2023-12-04T13:43:17;11.05;;;6.53;;
26082;SDS011;13848;49.018;12.078;2023-12-04T13:45:43;13.75;;;6.80;;
26082;SDS011;13848;49.018;12.078;2023-12-04T13:48:10;12.88;;;6.15;;
26082;SDS011;13848;49.018;12.078;2023-12-04T13:50:36;13.95;;;7.45;;
26082;SDS011;13848;49.018;12.078;2023-12-04T13:53:02;18.65;;;9.10;;
26082;SDS011;13848;49.018;12.078;2023-12-04T13:55:28;39.28;;;17.30;;
26082;SDS011;13848;49.018;12.078;2023-12-04T13:57:54;22.70;;;10.30;;
26082;SDS011;13848;49.018;12.078;2023-12-04T14:00:20;21.05;;;9.30;;
26082;SDS011;13848;49.018;12.078;2023-12-04T14:02:46;21.25;;;10.10;;
26082;SDS011;13848;49.018;12.078;2023-12-04T14:05:13;20.88;;;10.45;;
26082;SDS011;13848;49.018;12.078;2023-12-04T14:07:39;16.52;;;9.18;;
26082;SDS011;13848;49.018;12.078;2023-12-04T14:10:05;19.75;;;10.15;;